sensor_id;sensor_type;location;lat;lon;timestamp;P1;durP1;ratioP1;P2;durP2;ratioP2
41201;SDS011;26936;50.524;8.684;2022-09-28T00:01:22;5.25;;;3.47;;
41201;SDS011;26936;50.524;8.684;2022-09-28T00:03:49;6.38;;;3.30;;
41201;SDS011;26936;50.524;8.684;2022-09-28T00:06:18;5.18;;;3.10;;
41201;SDS011;26936;50.524;8.684;2022-09-28T00:08:46;7.07;;;3.25;;
41201;SDS011;26936;50.524;8.684;2022-09-28T00:11:14;7.53;;;3.45;;
41201;SDS011;26936;50.524;8.684;2022-09-28T00:13:40;5.03;;;3.50;;
41201;SDS011;26936;50.524;8.684;2022-09-28T00:16:08;6.97;;;3.70;;
41201;SDS011;26936;50.524;8.684;2022-09-28T00:18:36;7.38;;;3.65;;
41201;SDS011;26936;50.524;8.684;2022-09-28T00:21:01;7.60;;;3.55;;
41201;SDS011;26936;50.524;8.684;2022-09-28T00:23:38;7.00;;;3.70;;
41201;SDS011;26936;50.524;8.684;2022-09-28T00:26:28;5.40;;;3.63;;
41201;SDS011;26936;50.524;8.684;2022-09-28T00:28:56;7.65;;;3.97;;
41201;SDS011;26936;50.524;8.684;2022-09-28T00:31:23;5.43;;;3.55;;
41201;SDS011;26936;50.524;8.684;2022-09-28T00:33:49;6.35;;;4.10;;
41201;SDS011;26936;50.524;8.684;2022-09-28T00:36:15;6.82;;;4.50;;
41201;SDS011;26936;50.524;8.684;2022-09-28T00:38:41;5.63;;;3.70;;
41201;SDS011;26936;50.524;8.684;2022-09-28T00:41:07;6.35;;;3.80;;
41201;SDS011;26936;50.524;8.684;2022-09-28T00:43:36;5.70;;;3.50;;
41201;SDS011;26936;50.524;8.684;2022-09-28T00:46:05;7.68;;;3.72;;
41201;SDS011;26936;50.524;8.684;2022-09-28T00:48:37;4.22;;;3.45;;
41201;SDS011;26936;50.524;8.684;2022-09-28T00:51:06;4.85;;;2.72;;
41201;SDS011;26936;50.524;8.684;2022-09-28T00:53:35;4.57;;;2.80;;
41201;SDS011;26936;50.524;8.684;2022-09-28T00:56:04;4.38;;;2.60;;
41201;SDS011;26936;50.524;8.684;2022-09-28T00:58:35;4.93;;;2.67;;
41201;SDS011;26936;50.524;8.684;2022-09-28T01:01:05;5.00;;;2.80;;
41201;SDS011;26936;50.524;8.684;2022-09-28T01:03:30;5.18;;;2.90;;
41201;SDS011;26936;50.524;8.684;2022-09-28T01:05:58;4.85;;;3.63;;
41201;SDS011;26936;50.524;8.684;2022-09-28T01:08:26;8.55;;;5.63;;
41201;SDS011;26936;50.524;8.684;2022-09-28T01:10:53;8.25;;;5.82;;
41201;SDS011;26936;50.524;8.684;2022-09-28T01:13:19;9.15;;;5.75;;
41201;SDS011;26936;50.524;8.684;2022-09-28T01:15:53;8.95;;;6.07;;
41201;SDS011;26936;50.524;8.684;2022-09-28T01:20:59;8.48;;;5.38;;
41201;SDS011;26936;50.524;8.684;2022-09-28T01:23:47;6.38;;;4.78;;
41201;SDS011;26936;50.524;8.684;2022-09-28T01:26:31;10.05;;;4.00;;
41201;SDS011;26936;50.524;8.684;2022-09-28T01:29:16;5.97;;;4.38;;
41201;SDS011;26936;50.524;8.684;2022-09-28T01:31:50;9.15;;;6.55;;
41201;SDS011;26936;50.524;8.684;2022-09-28T01:34:21;10.18;;;6.40;;
41201;SDS011;26936;50.524;8.684;2022-09-28T01:36:52;9.82;;;6.10;;
41201;SDS011;26936;50.524;8.684;2022-09-28T01:39:22;7.57;;;5.38;;
41201;SDS011;26936;50.524;8.684;2022-09-28T01:41:52;8.57;;;6.60;;
41201;SDS011;26936;50.524;8.684;2022-09-28T01:44:20;9.93;;;6.85;;
41201;SDS011;26936;50.524;8.684;2022-09-28T01:46:49;8.98;;;6.32;;
41201;SDS011;26936;50.524;8.684;2022-09-28T01:49:18;9.90;;;6.90;;
41201;SDS011;26936;50.524;8.684;2022-09-28T01:51:54;9.85;;;7.57;;
41201;SDS011;26936;50.524;8.684;2022-09-28T01:54:53;9.52;;;6.85;;
41201;SDS011;26936;50.524;8.684;2022-09-28T01:57:40;11.02;;;6.55;;
41201;SDS011;26936;50.524;8.684;2022-09-28T02:00:13;9.40;;;5.85;;
41201;SDS011;26936;50.524;8.684;2022-09-28T02:02:41;8.85;;;6.07;;
41201;SDS011;26936;50.524;8.684;2022-09-28T02:05:16;7.27;;;5.20;;
41201;SDS011;26936;50.524;8.684;2022-09-28T02:07:46;5.90;;;4.22;;
41201;SDS011;26936;50.524;8.684;2022-09-28T02:10:21;6.18;;;4.20;;
41201;SDS011;26936;50.524;8.684;2022-09-28T02:12:56;6.45;;;4.55;;
41201;SDS011;26936;50.524;8.684;2022-09-28T02:15:29;5.47;;;4.32;;
41201;SDS011;26936;50.524;8.684;2022-09-28T02:18:03;6.07;;;3.90;;
41201;SDS011;26936;50.524;8.684;2022-09-28T02:20:29;6.03;;;3.67;;
41201;SDS011;26936;50.524;8.684;2022-09-28T02:22:56;6.95;;;3.45;;
41201;SDS011;26936;50.524;8.684;2022-09-28T02:25:27;4.40;;;2.90;;
41201;SDS011;26936;50.524;8.684;2022-09-28T02:27:59;5.95;;;3.05;;
41201;SDS011;26936;50.524;8.684;2022-09-28T02:30:26;4.22;;;2.60;;
41201;SDS011;26936;50.524;8.684;2022-09-28T02:32:53;2.20;;;2.00;;
41201;SDS011;26936;50.524;8.684;2022-09-28T02:35:23;4.72;;;1.90;;
41201;SDS011;26936;50.524;8.684;2022-09-28T02:37:48;4.05;;;2.15;;
41201;SDS011;26936;50.524;8.684;2022-09-28T02:40:15;4.65;;;2.55;;
41201;SDS011;26936;50.524;8.684;2022-09-28T02:42:49;2.72;;;2.38;;
41201;SDS011;26936;50.524;8.684;2022-09-28T02:45:24;6.07;;;2.60;;
41201;SDS011;26936;50.524;8.684;2022-09-28T02:48:07;2.60;;;1.83;;
41201;SDS011;26936;50.524;8.684;2022-09-28T02:50:50;3.10;;;1.47;;
41201;SDS011;26936;50.524;8.684;2022-09-28T02:56:32;1.73;;;1.40;;
41201;SDS011;26936;50.524;8.684;2022-09-28T02:59:27;2.40;;;1.70;;
41201;SDS011;26936;50.524;8.684;2022-09-28T03:02:17;2.35;;;1.60;;
41201;SDS011;26936;50.524;8.684;2022-09-28T03:12:59;2.08;;;1.33;;
41201;SDS011;26936;50.524;8.684;2022-09-28T03:15:30;1.98;;;1.20;;
41201;SDS011;26936;50.524;8.684;2022-09-28T03:17:57;2.85;;;1.50;;
41201;SDS011;26936;50.524;8.684;2022-09-28T03:20:24;2.00;;;1.33;;
41201;SDS011;26936;50.524;8.684;2022-09-28T03:22:49;2.13;;;1.60;;
41201;SDS011;26936;50.524;8.684;2022-09-28T03:25:15;2.13;;;1.67;;
41201;SDS011;26936;50.524;8.684;2022-09-28T03:27:40;2.78;;;1.50;;
41201;SDS011;26936;50.524;8.684;2022-09-28T03:30:06;3.20;;;2.00;;
41201;SDS011;26936;50.524;8.684;2022-09-28T03:32:32;2.45;;;1.58;;
41201;SDS011;26936;50.524;8.684;2022-09-28T03:34:58;2.90;;;1.70;;
41201;SDS011;26936;50.524;8.684;2022-09-28T03:37:23;2.53;;;1.83;;
41201;SDS011;26936;50.524;8.684;2022-09-28T03:39:48;6.45;;;2.17;;
41201;SDS011;26936;50.524;8.684;2022-09-28T03:42:13;4.35;;;2.15;;
41201;SDS011;26936;50.524;8.684;2022-09-28T03:44:39;3.33;;;1.70;;
41201;SDS011;26936;50.524;8.684;2022-09-28T03:47:05;3.50;;;1.90;;
41201;SDS011;26936;50.524;8.684;2022-09-28T03:49:32;3.90;;;2.00;;
41201;SDS011;26936;50.524;8.684;2022-09-28T03:51:57;3.90;;;2.30;;
41201;SDS011;26936;50.524;8.684;2022-09-28T03:54:22;3.10;;;2.10;;
41201;SDS011;26936;50.524;8.684;2022-09-28T03:56:47;2.27;;;2.07;;
41201;SDS011;26936;50.524;8.684;2022-09-28T03:59:13;4.40;;;2.22;;
41201;SDS011;26936;50.524;8.684;2022-09-28T04:01:38;4.13;;;2.80;;
41201;SDS011;26936;50.524;8.684;2022-09-28T04:04:03;6.07;;;2.20;;
41201;SDS011;26936;50.524;8.684;2022-09-28T04:06:28;3.50;;;2.40;;
41201;SDS011;26936;50.524;8.684;2022-09-28T04:08:54;5.10;;;2.17;;
41201;SDS011;26936;50.524;8.684;2022-09-28T04:11:19;5.15;;;2.60;;
41201;SDS011;26936;50.524;8.684;2022-09-28T04:13:47;3.30;;;2.13;;
41201;SDS011;26936;50.524;8.684;2022-09-28T04:16:13;3.58;;;2.40;;
41201;SDS011;26936;50.524;8.684;2022-09-28T04:18:39;4.78;;;2.30;;
41201;SDS011;26936;50.524;8.684;2022-09-28T04:21:07;5.55;;;2.13;;
41201;SDS011;26936;50.524;8.684;2022-09-28T04:23:35;3.70;;;2.10;;
41201;SDS011;26936;50.524;8.684;2022-09-28T04:26:02;2.67;;;2.10;;
41201;SDS011;26936;50.524;8.684;2022-09-28T04:28:32;5.55;;;2.42;;
41201;SDS011;26936;50.524;8.684;2022-09-28T04:31:17;5.03;;;2.20;;
41201;SDS011;26936;50.524;8.684;2022-09-28T04:33:44;2.60;;;2.10;;
41201;SDS011;26936;50.524;8.684;2022-09-28T04:36:10;5.07;;;2.13;;
41201;SDS011;26936;50.524;8.684;2022-09-28T04:38:36;3.35;;;2.15;;
41201;SDS011;26936;50.524;8.684;2022-09-28T04:41:02;4.88;;;2.40;;
41201;SDS011;26936;50.524;8.684;2022-09-28T04:43:27;3.72;;;2.10;;
41201;SDS011;26936;50.524;8.684;2022-09-28T04:46:02;5.45;;;1.90;;
41201;SDS011;26936;50.524;8.684;2022-09-28T04:48:29;3.55;;;2.33;;
41201;SDS011;26936;50.524;8.684;2022-09-28T04:50:55;3.70;;;2.17;;
41201;SDS011;26936;50.524;8.684;2022-09-28T04:53:22;5.32;;;2.63;;
41201;SDS011;26936;50.524;8.684;2022-09-28T04:55:58;3.17;;;2.20;;
41201;SDS011;26936;50.524;8.684;2022-09-28T04:58:25;4.13;;;2.38;;
41201;SDS011;26936;50.524;8.684;2022-09-28T05:00:51;5.57;;;2.40;;
41201;SDS011;26936;50.524;8.684;2022-09-28T05:03:17;4.35;;;2.85;;
41201;SDS011;26936;50.524;8.684;2022-09-28T05:05:43;4.55;;;2.58;;
41201;SDS011;26936;50.524;8.684;2022-09-28T05:08:09;4.30;;;2.30;;
41201;SDS011;26936;50.524;8.684;2022-09-28T05:10:34;4.38;;;2.03;;
41201;SDS011;26936;50.524;8.684;2022-09-28T05:13:00;3.63;;;2.25;;
41201;SDS011;26936;50.524;8.684;2022-09-28T05:15:26;3.35;;;2.50;;
41201;SDS011;26936;50.524;8.684;2022-09-28T05:17:51;2.60;;;2.23;;
41201;SDS011;26936;50.524;8.684;2022-09-28T05:20:17;5.38;;;2.50;;
41201;SDS011;26936;50.524;8.684;2022-09-28T05:22:42;4.90;;;2.72;;
41201;SDS011;26936;50.524;8.684;2022-09-28T05:25:07;5.07;;;2.83;;
41201;SDS011;26936;50.524;8.684;2022-09-28T05:27:33;5.05;;;3.05;;
41201;SDS011;26936;50.524;8.684;2022-09-28T05:29:58;3.40;;;2.40;;
41201;SDS011;26936;50.524;8.684;2022-09-28T05:32:23;6.03;;;2.60;;
41201;SDS011;26936;50.524;8.684;2022-09-28T05:34:49;4.47;;;2.63;;
41201;SDS011;26936;50.524;8.684;2022-09-28T05:37:14;6.15;;;2.97;;
41201;SDS011;26936;50.524;8.684;2022-09-28T05:39:39;7.25;;;2.97;;
41201;SDS011;26936;50.524;8.684;2022-09-28T05:42:04;5.03;;;2.83;;
41201;SDS011;26936;50.524;8.684;2022-09-28T05:44:31;5.47;;;3.28;;
41201;SDS011;26936;50.524;8.684;2022-09-28T05:46:56;7.67;;;3.20;;
41201;SDS011;26936;50.524;8.684;2022-09-28T05:49:21;9.57;;;3.37;;
41201;SDS011;26936;50.524;8.684;2022-09-28T05:51:47;5.13;;;3.10;;
41201;SDS011;26936;50.524;8.684;2022-09-28T05:54:12;6.38;;;3.42;;
41201;SDS011;26936;50.524;8.684;2022-09-28T05:56:37;7.63;;;3.33;;
41201;SDS011;26936;50.524;8.684;2022-09-28T05:59:02;7.88;;;3.30;;
41201;SDS011;26936;50.524;8.684;2022-09-28T06:01:30;6.82;;;3.03;;
41201;SDS011;26936;50.524;8.684;2022-09-28T06:03:55;6.43;;;3.28;;
41201;SDS011;26936;50.524;8.684;2022-09-28T06:06:20;6.57;;;3.17;;
41201;SDS011;26936;50.524;8.684;2022-09-28T06:08:45;6.63;;;2.90;;
41201;SDS011;26936;50.524;8.684;2022-09-28T06:11:12;6.28;;;2.50;;
41201;SDS011;26936;50.524;8.684;2022-09-28T06:13:37;3.75;;;2.30;;
41201;SDS011;26936;50.524;8.684;2022-09-28T06:16:04;4.15;;;2.58;;
41201;SDS011;26936;50.524;8.684;2022-09-28T06:18:31;3.50;;;2.72;;
41201;SDS011;26936;50.524;8.684;2022-09-28T06:20:56;8.20;;;3.20;;
41201;SDS011;26936;50.524;8.684;2022-09-28T06:23:22;6.55;;;3.60;;
41201;SDS011;26936;50.524;8.684;2022-09-28T06:25:47;12.00;;;4.47;;
41201;SDS011;26936;50.524;8.684;2022-09-28T06:28:13;10.93;;;4.53;;
41201;SDS011;26936;50.524;8.684;2022-09-28T06:30:39;8.05;;;3.65;;
41201;SDS011;26936;50.524;8.684;2022-09-28T06:33:06;6.38;;;3.72;;
41201;SDS011;26936;50.524;8.684;2022-09-28T06:35:34;9.45;;;3.83;;
41201;SDS011;26936;50.524;8.684;2022-09-28T06:37:59;5.57;;;3.45;;
41201;SDS011;26936;50.524;8.684;2022-09-28T06:40:25;6.45;;;3.50;;
41201;SDS011;26936;50.524;8.684;2022-09-28T06:42:55;8.43;;;3.17;;
41201;SDS011;26936;50.524;8.684;2022-09-28T06:45:22;6.70;;;3.25;;
41201;SDS011;26936;50.524;8.684;2022-09-28T06:47:58;6.60;;;3.45;;
41201;SDS011;26936;50.524;8.684;2022-09-28T06:50:25;5.90;;;3.88;;
41201;SDS011;26936;50.524;8.684;2022-09-28T06:52:53;6.80;;;3.70;;
41201;SDS011;26936;50.524;8.684;2022-09-28T06:55:19;6.82;;;3.60;;
41201;SDS011;26936;50.524;8.684;2022-09-28T06:57:45;7.03;;;2.90;;
41201;SDS011;26936;50.524;8.684;2022-09-28T07:00:10;7.47;;;3.35;;
41201;SDS011;26936;50.524;8.684;2022-09-28T07:02:36;8.40;;;3.63;;
41201;SDS011;26936;50.524;8.684;2022-09-28T07:05:01;11.40;;;4.05;;
41201;SDS011;26936;50.524;8.684;2022-09-28T07:07:27;8.23;;;4.63;;
41201;SDS011;26936;50.524;8.684;2022-09-28T07:09:53;7.75;;;4.05;;
41201;SDS011;26936;50.524;8.684;2022-09-28T07:12:19;6.05;;;4.03;;
41201;SDS011;26936;50.524;8.684;2022-09-28T07:14:47;9.00;;;4.47;;
41201;SDS011;26936;50.524;8.684;2022-09-28T07:17:13;7.28;;;3.83;;
41201;SDS011;26936;50.524;8.684;2022-09-28T07:19:39;4.45;;;3.00;;
41201;SDS011;26936;50.524;8.684;2022-09-28T07:22:04;5.00;;;3.17;;
41201;SDS011;26936;50.524;8.684;2022-09-28T07:24:29;6.50;;;2.70;;
41201;SDS011;26936;50.524;8.684;2022-09-28T07:26:55;4.30;;;2.53;;
41201;SDS011;26936;50.524;8.684;2022-09-28T07:29:20;4.25;;;2.55;;
41201;SDS011;26936;50.524;8.684;2022-09-28T07:31:46;3.22;;;2.35;;
41201;SDS011;26936;50.524;8.684;2022-09-28T07:34:11;6.53;;;2.40;;
41201;SDS011;26936;50.524;8.684;2022-09-28T07:36:36;4.40;;;2.40;;
41201;SDS011;26936;50.524;8.684;2022-09-28T07:39:02;4.72;;;2.83;;
41201;SDS011;26936;50.524;8.684;2022-09-28T07:41:28;8.43;;;2.70;;
41201;SDS011;26936;50.524;8.684;2022-09-28T07:43:56;4.18;;;2.55;;
41201;SDS011;26936;50.524;8.684;2022-09-28T07:46:23;3.78;;;2.90;;
41201;SDS011;26936;50.524;8.684;2022-09-28T07:48:49;4.57;;;3.30;;
41201;SDS011;26936;50.524;8.684;2022-09-28T07:51:15;4.97;;;2.92;;
41201;SDS011;26936;50.524;8.684;2022-09-28T07:53:43;5.00;;;3.08;;
41201;SDS011;26936;50.524;8.684;2022-09-28T07:56:08;6.83;;;3.30;;
41201;SDS011;26936;50.524;8.684;2022-09-28T07:58:34;5.60;;;2.90;;
41201;SDS011;26936;50.524;8.684;2022-09-28T08:01:08;6.63;;;3.28;;
41201;SDS011;26936;50.524;8.684;2022-09-28T08:03:34;5.78;;;2.88;;
41201;SDS011;26936;50.524;8.684;2022-09-28T08:06:02;4.53;;;2.65;;
41201;SDS011;26936;50.524;8.684;2022-09-28T08:08:29;4.38;;;2.95;;
41201;SDS011;26936;50.524;8.684;2022-09-28T08:10:58;4.68;;;2.50;;
41201;SDS011;26936;50.524;8.684;2022-09-28T08:13:23;6.67;;;2.60;;
41201;SDS011;26936;50.524;8.684;2022-09-28T08:15:50;6.75;;;2.60;;
41201;SDS011;26936;50.524;8.684;2022-09-28T08:18:16;3.88;;;2.08;;
41201;SDS011;26936;50.524;8.684;2022-09-28T08:20:41;4.75;;;2.15;;
41201;SDS011;26936;50.524;8.684;2022-09-28T08:23:25;2.38;;;2.08;;
41201;SDS011;26936;50.524;8.684;2022-09-28T08:25:50;4.50;;;1.70;;
41201;SDS011;26936;50.524;8.684;2022-09-28T08:28:19;2.10;;;1.50;;
41201;SDS011;26936;50.524;8.684;2022-09-28T08:30:46;4.70;;;1.67;;
41201;SDS011;26936;50.524;8.684;2022-09-28T08:33:12;1.85;;;1.60;;
41201;SDS011;26936;50.524;8.684;2022-09-28T08:35:39;3.28;;;2.28;;
41201;SDS011;26936;50.524;8.684;2022-09-28T08:38:05;1.75;;;1.60;;
41201;SDS011;26936;50.524;8.684;2022-09-28T08:40:31;3.03;;;1.45;;
41201;SDS011;26936;50.524;8.684;2022-09-28T08:43:03;2.13;;;1.58;;
41201;SDS011;26936;50.524;8.684;2022-09-28T08:45:34;1.75;;;1.65;;
41201;SDS011;26936;50.524;8.684;2022-09-28T08:51:12;1.48;;;1.27;;
41201;SDS011;26936;50.524;8.684;2022-09-28T08:54:02;2.50;;;1.70;;
41201;SDS011;26936;50.524;8.684;2022-09-28T08:59:06;2.80;;;1.67;;
41201;SDS011;26936;50.524;8.684;2022-09-28T09:01:41;3.53;;;1.70;;
41201;SDS011;26936;50.524;8.684;2022-09-28T09:04:11;2.72;;;2.13;;
41201;SDS011;26936;50.524;8.684;2022-09-28T09:09:29;3.40;;;2.17;;
41201;SDS011;26936;50.524;8.684;2022-09-28T09:12:07;2.58;;;2.10;;
41201;SDS011;26936;50.524;8.684;2022-09-28T09:14:56;3.53;;;2.10;;
41201;SDS011;26936;50.524;8.684;2022-09-28T09:17:36;1.90;;;1.70;;
41201;SDS011;26936;50.524;8.684;2022-09-28T09:20:36;2.67;;;2.00;;
41201;SDS011;26936;50.524;8.684;2022-09-28T09:23:15;4.07;;;1.95;;
41201;SDS011;26936;50.524;8.684;2022-09-28T09:26:03;3.88;;;2.28;;
41201;SDS011;26936;50.524;8.684;2022-09-28T09:36:55;3.92;;;2.80;;
41201;SDS011;26936;50.524;8.684;2022-09-28T09:42:13;5.90;;;2.67;;
41201;SDS011;26936;50.524;8.684;2022-09-28T09:47:37;4.20;;;2.70;;
41201;SDS011;26936;50.524;8.684;2022-09-28T09:50:29;3.25;;;2.50;;
41201;SDS011;26936;50.524;8.684;2022-09-28T09:53:01;5.13;;;2.45;;
41201;SDS011;26936;50.524;8.684;2022-09-28T09:55:42;4.88;;;1.98;;
41201;SDS011;26936;50.524;8.684;2022-09-28T09:58:17;4.93;;;2.08;;
41201;SDS011;26936;50.524;8.684;2022-09-28T10:00:48;3.05;;;2.10;;
41201;SDS011;26936;50.524;8.684;2022-09-28T10:03:24;2.85;;;2.03;;
41201;SDS011;26936;50.524;8.684;2022-09-28T10:05:57;6.03;;;2.10;;
41201;SDS011;26936;50.524;8.684;2022-09-28T10:08:27;3.78;;;2.10;;
41201;SDS011;26936;50.524;8.684;2022-09-28T10:11:04;4.78;;;2.40;;
41201;SDS011;26936;50.524;8.684;2022-09-28T10:13:36;3.90;;;2.30;;
41201;SDS011;26936;50.524;8.684;2022-09-28T10:16:02;2.38;;;1.92;;
41201;SDS011;26936;50.524;8.684;2022-09-28T10:18:29;2.00;;;1.73;;
41201;SDS011;26936;50.524;8.684;2022-09-28T10:20:54;4.33;;;2.33;;
41201;SDS011;26936;50.524;8.684;2022-09-28T10:23:21;3.17;;;1.70;;
41201;SDS011;26936;50.524;8.684;2022-09-28T10:25:51;2.33;;;2.00;;
41201;SDS011;26936;50.524;8.684;2022-09-28T10:28:31;2.97;;;2.15;;
41201;SDS011;26936;50.524;8.684;2022-09-28T10:34:06;3.00;;;1.70;;
41201;SDS011;26936;50.524;8.684;2022-09-28T10:36:45;4.03;;;1.73;;
41201;SDS011;26936;50.524;8.684;2022-09-28T10:39:22;1.90;;;1.50;;
41201;SDS011;26936;50.524;8.684;2022-09-28T10:41:51;2.50;;;1.52;;
41201;SDS011;26936;50.524;8.684;2022-09-28T10:44:18;3.13;;;2.25;;
41201;SDS011;26936;50.524;8.684;2022-09-28T10:46:53;3.13;;;1.45;;
41201;SDS011;26936;50.524;8.684;2022-09-28T10:49:20;2.00;;;1.38;;
41201;SDS011;26936;50.524;8.684;2022-09-28T10:51:48;3.13;;;1.30;;
41201;SDS011;26936;50.524;8.684;2022-09-28T10:54:22;6.40;;;1.48;;
41201;SDS011;26936;50.524;8.684;2022-09-28T10:56:50;2.10;;;1.55;;
41201;SDS011;26936;50.524;8.684;2022-09-28T10:59:24;1.92;;;1.50;;
41201;SDS011;26936;50.524;8.684;2022-09-28T11:04:36;5.43;;;1.30;;
41201;SDS011;26936;50.524;8.684;2022-09-28T11:07:04;2.03;;;1.45;;
41201;SDS011;26936;50.524;8.684;2022-09-28T11:09:41;5.25;;;2.15;;
41201;SDS011;26936;50.524;8.684;2022-09-28T11:12:54;2.85;;;1.35;;
41201;SDS011;26936;50.524;8.684;2022-09-28T11:15:10;1.67;;;1.20;;
41201;SDS011;26936;50.524;8.684;2022-09-28T11:17:42;2.17;;;1.50;;
41201;SDS011;26936;50.524;8.684;2022-09-28T11:22:49;2.45;;;1.35;;
41201;SDS011;26936;50.524;8.684;2022-09-28T11:27:42;2.37;;;1.40;;
41201;SDS011;26936;50.524;8.684;2022-09-28T11:30:27;3.40;;;0.88;;
41201;SDS011;26936;50.524;8.684;2022-09-28T11:32:59;1.48;;;1.00;;
41201;SDS011;26936;50.524;8.684;2022-09-28T11:35:31;2.55;;;1.10;;
41201;SDS011;26936;50.524;8.684;2022-09-28T11:40:59;1.65;;;0.95;;
41201;SDS011;26936;50.524;8.684;2022-09-28T11:49:42;3.55;;;1.50;;
41201;SDS011;26936;50.524;8.684;2022-09-28T11:52:16;5.72;;;4.45;;
41201;SDS011;26936;50.524;8.684;2022-09-28T11:54:51;3.03;;;1.85;;
41201;SDS011;26936;50.524;8.684;2022-09-28T11:57:23;2.70;;;1.90;;
41201;SDS011;26936;50.524;8.684;2022-09-28T12:00:02;2.13;;;1.48;;
41201;SDS011;26936;50.524;8.684;2022-09-28T12:05:46;3.50;;;1.60;;
41201;SDS011;26936;50.524;8.684;2022-09-28T12:08:20;3.78;;;1.20;;
41201;SDS011;26936;50.524;8.684;2022-09-28T12:13:37;2.08;;;1.27;;
41201;SDS011;26936;50.524;8.684;2022-09-28T12:16:12;1.73;;;1.08;;
41201;SDS011;26936;50.524;8.684;2022-09-28T12:24:29;1.02;;;0.88;;
41201;SDS011;26936;50.524;8.684;2022-09-28T12:26:58;2.53;;;1.00;;
41201;SDS011;26936;50.524;8.684;2022-09-28T12:29:28;1.10;;;0.90;;
41201;SDS011;26936;50.524;8.684;2022-09-28T12:32:10;3.30;;;1.20;;
41201;SDS011;26936;50.524;8.684;2022-09-28T12:34:36;1.42;;;1.00;;
41201;SDS011;26936;50.524;8.684;2022-09-28T12:37:04;2.28;;;1.00;;
41201;SDS011;26936;50.524;8.684;2022-09-28T12:39:45;1.95;;;0.70;;
41201;SDS011;26936;50.524;8.684;2022-09-28T12:42:55;1.60;;;0.88;;
41201;SDS011;26936;50.524;8.684;2022-09-28T12:45:28;1.83;;;1.25;;
41201;SDS011;26936;50.524;8.684;2022-09-28T12:48:10;1.30;;;1.02;;
41201;SDS011;26936;50.524;8.684;2022-09-28T12:51:22;4.65;;;1.48;;
41201;SDS011;26936;50.524;8.684;2022-09-28T12:53:56;2.30;;;1.38;;
41201;SDS011;26936;50.524;8.684;2022-09-28T12:56:44;1.52;;;1.30;;
41201;SDS011;26936;50.524;8.684;2022-09-28T12:59:49;4.07;;;1.48;;
41201;SDS011;26936;50.524;8.684;2022-09-28T13:11:23;2.13;;;1.52;;
41201;SDS011;26936;50.524;8.684;2022-09-28T13:14:00;1.73;;;1.30;;
41201;SDS011;26936;50.524;8.684;2022-09-28T13:19:13;1.92;;;1.38;;
41201;SDS011;26936;50.524;8.684;2022-09-28T13:21:54;1.63;;;1.48;;
41201;SDS011;26936;50.524;8.684;2022-09-28T13:24:30;2.85;;;1.45;;
41201;SDS011;26936;50.524;8.684;2022-09-28T13:27:08;2.78;;;1.40;;
41201;SDS011;26936;50.524;8.684;2022-09-28T13:29:37;2.85;;;1.60;;
41201;SDS011;26936;50.524;8.684;2022-09-28T13:32:03;2.25;;;1.30;;
41201;SDS011;26936;50.524;8.684;2022-09-28T13:34:32;2.95;;;1.02;;
41201;SDS011;26936;50.524;8.684;2022-09-28T13:37:33;3.55;;;1.10;;
41201;SDS011;26936;50.524;8.684;2022-09-28T13:39:53;2.08;;;1.10;;
41201;SDS011;26936;50.524;8.684;2022-09-28T13:58:27;1.38;;;1.15;;
41201;SDS011;26936;50.524;8.684;2022-09-28T14:00:58;2.55;;;1.48;;
41201;SDS011;26936;50.524;8.684;2022-09-28T14:06:22;4.75;;;1.42;;
41201;SDS011;26936;50.524;8.684;2022-09-28T14:11:41;2.58;;;1.15;;
41201;SDS011;26936;50.524;8.684;2022-09-28T14:16:42;2.47;;;1.40;;
41201;SDS011;26936;50.524;8.684;2022-09-28T14:19:10;1.77;;;1.10;;
41201;SDS011;26936;50.524;8.684;2022-09-28T14:24:21;3.97;;;1.30;;
41201;SDS011;26936;50.524;8.684;2022-09-28T14:29:37;2.13;;;1.08;;
41201;SDS011;26936;50.524;8.684;2022-09-28T14:34:35;1.40;;;0.80;;
41201;SDS011;26936;50.524;8.684;2022-09-28T14:37:17;1.80;;;0.68;;
41201;SDS011;26936;50.524;8.684;2022-09-28T14:40:14;1.23;;;0.80;;
41201;SDS011;26936;50.524;8.684;2022-09-28T14:43:35;1.10;;;0.70;;
41201;SDS011;26936;50.524;8.684;2022-09-28T14:48:48;1.83;;;0.60;;
41201;SDS011;26936;50.524;8.684;2022-09-28T14:54:00;1.60;;;0.63;;
41201;SDS011;26936;50.524;8.684;2022-09-28T14:56:30;1.30;;;0.70;;
41201;SDS011;26936;50.524;8.684;2022-09-28T15:01:29;2.67;;;0.80;;
41201;SDS011;26936;50.524;8.684;2022-09-28T15:03:55;1.65;;;0.50;;
41201;SDS011;26936;50.524;8.684;2022-09-28T15:06:23;1.17;;;0.90;;
41201;SDS011;26936;50.524;8.684;2022-09-28T15:08:49;1.20;;;0.75;;
41201;SDS011;26936;50.524;8.684;2022-09-28T15:11:21;1.08;;;0.70;;
41201;SDS011;26936;50.524;8.684;2022-09-28T15:13:49;1.75;;;0.90;;
41201;SDS011;26936;50.524;8.684;2022-09-28T15:16:21;1.00;;;0.50;;
41201;SDS011;26936;50.524;8.684;2022-09-28T15:21:34;1.10;;;0.90;;
41201;SDS011;26936;50.524;8.684;2022-09-28T15:24:01;1.50;;;0.80;;
41201;SDS011;26936;50.524;8.684;2022-09-28T15:26:31;2.65;;;0.80;;
41201;SDS011;26936;50.524;8.684;2022-09-28T15:28:58;1.40;;;0.63;;
41201;SDS011;26936;50.524;8.684;2022-09-28T15:31:27;2.25;;;0.70;;
41201;SDS011;26936;50.524;8.684;2022-09-28T15:33:57;2.45;;;0.80;;
41201;SDS011;26936;50.524;8.684;2022-09-28T15:36:42;0.80;;;0.70;;
41201;SDS011;26936;50.524;8.684;2022-09-28T15:39:14;1.67;;;0.68;;
41201;SDS011;26936;50.524;8.684;2022-09-28T15:41:46;2.08;;;0.90;;
41201;SDS011;26936;50.524;8.684;2022-09-28T15:46:40;2.67;;;1.53;;
41201;SDS011;26936;50.524;8.684;2022-09-28T15:49:25;3.10;;;1.30;;
41201;SDS011;26936;50.524;8.684;2022-09-28T15:51:59;1.63;;;0.90;;
41201;SDS011;26936;50.524;8.684;2022-09-28T15:54:27;3.38;;;1.42;;
41201;SDS011;26936;50.524;8.684;2022-09-28T15:57:00;2.53;;;1.38;;
41201;SDS011;26936;50.524;8.684;2022-09-28T15:59:36;1.90;;;1.00;;
41201;SDS011;26936;50.524;8.684;2022-09-28T16:04:45;2.42;;;1.05;;
41201;SDS011;26936;50.524;8.684;2022-09-28T16:07:21;2.53;;;1.50;;
41201;SDS011;26936;50.524;8.684;2022-09-28T16:15:03;2.83;;;0.90;;
41201;SDS011;26936;50.524;8.684;2022-09-28T16:17:52;3.38;;;1.48;;
41201;SDS011;26936;50.524;8.684;2022-09-28T16:20:35;6.82;;;1.67;;
41201;SDS011;26936;50.524;8.684;2022-09-28T16:25:40;2.00;;;1.20;;
41201;SDS011;26936;50.524;8.684;2022-09-28T16:28:26;2.25;;;1.05;;
41201;SDS011;26936;50.524;8.684;2022-09-28T16:33:39;3.07;;;1.13;;
41201;SDS011;26936;50.524;8.684;2022-09-28T16:36:11;2.42;;;1.27;;
41201;SDS011;26936;50.524;8.684;2022-09-28T16:38:38;4.13;;;1.00;;
41201;SDS011;26936;50.524;8.684;2022-09-28T16:41:04;3.97;;;1.30;;
41201;SDS011;26936;50.524;8.684;2022-09-28T16:43:30;3.67;;;1.48;;
41201;SDS011;26936;50.524;8.684;2022-09-28T16:45:59;3.13;;;1.30;;
41201;SDS011;26936;50.524;8.684;2022-09-28T16:48:30;1.38;;;1.00;;
41201;SDS011;26936;50.524;8.684;2022-09-28T16:50:58;3.70;;;1.10;;
41201;SDS011;26936;50.524;8.684;2022-09-28T16:53:23;1.85;;;0.98;;
41201;SDS011;26936;50.524;8.684;2022-09-28T16:56:07;2.83;;;1.10;;
41201;SDS011;26936;50.524;8.684;2022-09-28T16:58:33;2.28;;;1.17;;
41201;SDS011;26936;50.524;8.684;2022-09-28T17:01:03;1.73;;;0.95;;
41201;SDS011;26936;50.524;8.684;2022-09-28T17:03:33;5.30;;;1.20;;
41201;SDS011;26936;50.524;8.684;2022-09-28T17:05:58;4.65;;;1.33;;
41201;SDS011;26936;50.524;8.684;2022-09-28T17:08:24;1.77;;;0.63;;
41201;SDS011;26936;50.524;8.684;2022-09-28T17:13:16;2.85;;;1.10;;
41201;SDS011;26936;50.524;8.684;2022-09-28T17:15:42;1.95;;;1.13;;
41201;SDS011;26936;50.524;8.684;2022-09-28T17:18:11;1.25;;;0.70;;
41201;SDS011;26936;50.524;8.684;2022-09-28T17:20:37;3.30;;;0.68;;
41201;SDS011;26936;50.524;8.684;2022-09-28T17:23:05;1.63;;;0.50;;
41201;SDS011;26936;50.524;8.684;2022-09-28T17:25:30;1.40;;;0.90;;
41201;SDS011;26936;50.524;8.684;2022-09-28T17:27:56;2.85;;;0.95;;
41201;SDS011;26936;50.524;8.684;2022-09-28T17:30:22;1.63;;;1.00;;